PWSweather.com
Personal Weather Stations
Station Observations
SUBOTICARS
SuboticaYU

SuboticaYU

Lat: 46.1296717, Lon: 19.641551

Elevation: 110

Station Type: Nexus

http://sumeteo.info

Latest ConditionsUpdated 2:30:42 PM GMT+01:01 Thursday, Apr 24, 2014
Currently Today's Max Today's Min Today's Average
Temperature 61.2°F16.2°C 63.3°F17.4°C 58.1°F14.5°C 60.0°F15.6°C
Dew Point 57.3°F14.1°C 57.5°F14.2°C 53.6°F12.0°C 55.1°F12.8°C
Winds 2.4 mph NNE3.9 kmh NNE 4.6 mph NNE7.4 kmh NNE - 2.0 mph 3.2 kmh
Wind Gusts 3.8 mph6.1 kmh 9.0 mph14.5 kmh - -
Humidity 87% 87% 78% 84%
Pressure 29.91 in1012.9 mb 29.98 in1015.2 mb 29.91 in1012.9 mb -
Precipitation - 0.05 in1.3 mm - -
Hour Temp Dew Point Humidity Winds Wind Gusts Pressure Precip Precip Rate Daily Precip Total
02:30 PM 61.2°F16.2°C 57.3°F14.1°C 87% 2.4 mph NNE3.9 kmh NNE 3.8 mph6.1 kmh 29.91 in1012.9 mb 0.00 in0.0 mm 0.00 in/hr0.0 mm/hr 0.05 in1.3 mm
02:20 PM 61.2°F16.2°C 57.3°F14.1°C 87% 2.6 mph NE4.2 kmh NE 6.3 mph10.1 kmh 29.92 in1013.2 mb 0.00 in0.0 mm 0.00 in/hr0.0 mm/hr 0.05 in1.3 mm
02:10 PM 61.5°F16.4°C 57.2°F14.0°C 86% 2.7 mph NE4.3 kmh NE 3.8 mph6.1 kmh 29.92 in1013.2 mb 0.00 in0.0 mm 0.00 in/hr0.0 mm/hr 0.05 in1.3 mm
02:00 PM 61.3°F16.3°C 56.8°F13.8°C 85% 1.3 mph NE2.1 kmh NE 4.6 mph7.4 kmh 29.92 in1013.2 mb 0.01 in0.3 mm 0.01 in/hr0.3 mm/hr 0.05 in1.3 mm
01:50 PM 61.5°F16.4°C 56.9°F13.8°C 85% 1.4 mph NE2.3 kmh NE -- 29.92 in1013.2 mb 0.01 in0.3 mm 0.06 in/hr1.5 mm/hr 0.04 in1.0 mm
01:40 PM 61.5°F16.4°C 56.3°F13.5°C 83% 2.1 mph ENE3.4 kmh ENE 4.3 mph6.9 kmh 29.93 in1013.5 mb 0.01 in0.3 mm 0.06 in/hr1.5 mm/hr 0.04 in1.0 mm
01:30 PM 61.9°F16.6°C 57.0°F13.9°C 84% 2.6 mph E4.2 kmh E 3.8 mph6.1 kmh 29.93 in1013.5 mb 0.01 in0.3 mm 0.06 in/hr1.5 mm/hr 0.03 in0.8 mm
01:20 PM 62.1°F16.7°C 57.2°F14.0°C 84% 3.0 mph ENE4.8 kmh ENE 4.0 mph6.4 kmh 29.93 in1013.5 mb 0.01 in0.3 mm 0.06 in/hr1.5 mm/hr 0.02 in0.5 mm
01:10 PM 62.2°F16.8°C 57.3°F14.1°C 84% 2.2 mph E3.5 kmh E 4.3 mph6.9 kmh 29.93 in1013.5 mb 0.00 in0.0 mm 0.00 in/hr0.0 mm/hr 0.01 in0.3 mm
01:00 PM 62.4°F16.9°C 57.5°F14.2°C 84% 1.7 mph NE2.7 kmh NE 4.9 mph7.9 kmh 29.93 in1013.5 mb 0.01 in0.3 mm 0.01 in/hr0.3 mm/hr 0.01 in0.3 mm
12:50 PM 62.4°F16.9°C 57.2°F14.0°C 83% 2.0 mph E3.2 kmh E 2.6 mph4.2 kmh 29.93 in1013.5 mb 0.00 in0.0 mm 0.00 in/hr0.0 mm/hr 0.01 in0.3 mm
12:40 PM 63.0°F17.2°C 57.4°F14.1°C 82% 2.8 mph E4.5 kmh E 6.1 mph9.8 kmh 29.93 in1013.5 mb 0.01 in0.3 mm 0.06 in/hr1.5 mm/hr 0.01 in0.3 mm
12:30 PM 63.2°F17.3°C 57.2°F14.0°C 81% 2.6 mph E4.2 kmh E 6.3 mph10.1 kmh 29.93 in1013.5 mb 0.00 in0.0 mm 0.00 in/hr0.0 mm/hr 0.00 in0.0 mm
12:20 PM 63.3°F17.4°C 57.0°F13.9°C 80% 2.4 mph E3.9 kmh E 3.7 mph6.0 kmh 29.93 in1013.5 mb 0.00 in0.0 mm 0.00 in/hr0.0 mm/hr 0.00 in0.0 mm
12:10 PM 63.3°F17.4°C 56.7°F13.7°C 79% 2.3 mph NE3.7 kmh NE 4.6 mph7.4 kmh 29.93 in1013.5 mb 0.00 in0.0 mm 0.00 in/hr0.0 mm/hr 0.00 in0.0 mm
12:00 PM 63.2°F17.3°C 56.5°F13.6°C 79% 2.6 mph E4.2 kmh E 1.8 mph2.9 kmh 29.93 in1013.5 mb 0.00 in0.0 mm 0.00 in/hr0.0 mm/hr 0.00 in0.0 mm
11:50 AM 63.0°F17.2°C 56.0°F13.3°C 78% 2.4 mph E3.9 kmh E 5.2 mph8.4 kmh 29.93 in1013.5 mb 0.00 in0.0 mm 0.00 in/hr0.0 mm/hr 0.00 in0.0 mm
11:40 AM 63.0°F17.2°C 56.0°F13.3°C 78% 2.3 mph ESE3.7 kmh ESE 4.3 mph6.9 kmh 29.93 in1013.5 mb 0.00 in0.0 mm 0.00 in/hr0.0 mm/hr 0.00 in0.0 mm
11:30 AM 63.0°F17.2°C 56.3°F13.5°C 79% 1.9 mph E3.1 kmh E 3.2 mph5.1 kmh 29.93 in1013.5 mb 0.00 in0.0 mm 0.00 in/hr0.0 mm/hr 0.00 in0.0 mm
11:20 AM 62.6°F17.0°C 56.0°F13.3°C 79% 2.7 mph NE4.3 kmh NE 3.7 mph6.0 kmh 29.91 in1012.9 mb 0.00 in0.0 mm 0.00 in/hr0.0 mm/hr 0.00 in0.0 mm
11:10 AM 62.5°F16.9°C 55.9°F13.3°C 79% 2.6 mph E4.2 kmh E 8.1 mph13.0 kmh 29.91 in1012.9 mb 0.00 in0.0 mm 0.00 in/hr0.0 mm/hr 0.00 in0.0 mm
11:00 AM 62.6°F17.0°C 56.0°F13.3°C 79% 1.7 mph E2.7 kmh E 2.9 mph4.7 kmh 29.93 in1013.5 mb 0.00 in0.0 mm 0.00 in/hr0.0 mm/hr 0.00 in0.0 mm
10:50 AM 62.2°F16.8°C 55.6°F13.1°C 79% 2.3 mph ESE3.7 kmh ESE 5.4 mph8.7 kmh 29.93 in1013.5 mb 0.00 in0.0 mm 0.00 in/hr0.0 mm/hr 0.00 in0.0 mm
10:40 AM 61.8°F16.6°C 55.9°F13.3°C 81% 1.2 mph NE1.9 kmh NE -- 29.93 in1013.5 mb 0.00 in0.0 mm 0.00 in/hr0.0 mm/hr 0.00 in0.0 mm
10:30 AM 61.5°F16.4°C 55.6°F13.1°C 81% 1.3 mph E2.1 kmh E 2.4 mph3.9 kmh 29.93 in1013.5 mb 0.00 in0.0 mm 0.00 in/hr0.0 mm/hr 0.00 in0.0 mm
10:20 AM 61.2°F16.2°C 55.3°F12.9°C 81% 1.7 mph NE2.7 kmh NE 3.7 mph6.0 kmh 29.93 in1013.5 mb 0.00 in0.0 mm 0.00 in/hr0.0 mm/hr 0.00 in0.0 mm
10:10 AM 61.3°F16.3°C 55.8°F13.2°C 82% 1.1 mph NE1.8 kmh NE -- 29.93 in1013.5 mb 0.00 in0.0 mm 0.00 in/hr0.0 mm/hr 0.00 in0.0 mm
10:00 AM 61.2°F16.2°C 55.3°F12.9°C 81% 0.8 mph SE1.3 kmh SE 2.6 mph4.2 kmh 29.93 in1013.5 mb 0.00 in0.0 mm 0.00 in/hr0.0 mm/hr 0.00 in0.0 mm
09:50 AM 61.5°F16.4°C 55.3°F12.9°C 80% 2.5 mph E4.0 kmh E 4.6 mph7.4 kmh 29.93 in1013.5 mb 0.00 in0.0 mm 0.00 in/hr0.0 mm/hr 0.00 in0.0 mm
09:40 AM 61.5°F16.4°C 55.3°F12.9°C 80% 2.5 mph E4.0 kmh E 3.7 mph6.0 kmh 29.93 in1013.5 mb 0.00 in0.0 mm 0.00 in/hr0.0 mm/hr 0.00 in0.0 mm
09:30 AM 61.5°F16.4°C 55.3°F12.9°C 80% 2.1 mph ESE3.4 kmh ESE 2.8 mph4.5 kmh 29.93 in1013.5 mb 0.00 in0.0 mm 0.00 in/hr0.0 mm/hr 0.00 in0.0 mm
09:20 AM 61.5°F16.4°C 55.3°F12.9°C 80% 2.6 mph N4.2 kmh N 6.3 mph10.1 kmh 29.93 in1013.5 mb 0.00 in0.0 mm 0.00 in/hr0.0 mm/hr 0.00 in0.0 mm
09:10 AM 61.2°F16.2°C 55.3°F12.9°C 81% 2.4 mph E3.9 kmh E 5.2 mph8.4 kmh 29.93 in1013.5 mb 0.00 in0.0 mm 0.00 in/hr0.0 mm/hr 0.00 in0.0 mm
09:00 AM 60.8°F16.0°C 54.9°F12.7°C 81% 1.4 mph E2.3 kmh E 2.6 mph4.2 kmh 29.93 in1013.5 mb 0.00 in0.0 mm 0.00 in/hr0.0 mm/hr 0.00 in0.0 mm
08:50 AM 60.2°F15.7°C 54.7°F12.6°C 82% 1.4 mph E2.3 kmh E 2.9 mph4.7 kmh 29.93 in1013.5 mb 0.00 in0.0 mm 0.00 in/hr0.0 mm/hr 0.00 in0.0 mm
08:40 AM 59.7°F15.4°C 54.5°F12.5°C 83% 2.1 mph ENE3.4 kmh ENE 3.5 mph5.6 kmh 29.92 in1013.2 mb 0.00 in0.0 mm 0.00 in/hr0.0 mm/hr 0.00 in0.0 mm
08:30 AM 59.4°F15.2°C 54.2°F12.3°C 83% 0.9 mph ENE1.4 kmh ENE 2.9 mph4.7 kmh 29.92 in1013.2 mb 0.00 in0.0 mm 0.00 in/hr0.0 mm/hr 0.00 in0.0 mm
08:20 AM 59.0°F15.0°C 53.8°F12.1°C 83% 1.4 mph ENE2.3 kmh ENE 3.8 mph6.1 kmh 29.92 in1013.2 mb 0.00 in0.0 mm 0.00 in/hr0.0 mm/hr 0.00 in0.0 mm
08:10 AM 59.0°F15.0°C 53.8°F12.1°C 83% 1.7 mph ESE2.7 kmh ESE 3.4 mph5.5 kmh 29.92 in1013.2 mb 0.00 in0.0 mm 0.00 in/hr0.0 mm/hr 0.00 in0.0 mm
08:00 AM 59.0°F15.0°C 53.8°F12.1°C 83% 2.2 mph E3.5 kmh E 6.3 mph10.1 kmh 29.91 in1012.9 mb 0.00 in0.0 mm 0.00 in/hr0.0 mm/hr 0.00 in0.0 mm
07:50 AM 59.0°F15.0°C 54.1°F12.3°C 84% 1.7 mph ESE2.7 kmh ESE 2.6 mph4.2 kmh 29.91 in1012.9 mb 0.00 in0.0 mm 0.00 in/hr0.0 mm/hr 0.00 in0.0 mm
07:40 AM 59.0°F15.0°C 54.1°F12.3°C 84% 2.5 mph E4.0 kmh E 2.8 mph4.5 kmh 29.92 in1013.2 mb 0.00 in0.0 mm 0.00 in/hr0.0 mm/hr 0.00 in0.0 mm
07:30 AM 58.8°F14.9°C 54.0°F12.2°C 84% 2.7 mph NE4.3 kmh NE 6.3 mph10.1 kmh 29.92 in1013.2 mb 0.00 in0.0 mm 0.00 in/hr0.0 mm/hr 0.00 in0.0 mm
07:20 AM 58.8°F14.9°C 54.0°F12.2°C 84% 2.3 mph NE3.7 kmh NE 6.1 mph9.8 kmh 29.93 in1013.5 mb 0.00 in0.0 mm 0.00 in/hr0.0 mm/hr 0.00 in0.0 mm
07:10 AM 58.8°F14.9°C 54.0°F12.2°C 84% 2.9 mph NE4.7 kmh NE 2.8 mph4.5 kmh 29.93 in1013.5 mb 0.00 in0.0 mm 0.00 in/hr0.0 mm/hr 0.00 in0.0 mm
07:00 AM 58.7°F14.8°C 53.8°F12.1°C 84% 3.5 mph E5.6 kmh E 2.8 mph4.5 kmh 29.92 in1013.2 mb 0.00 in0.0 mm 0.00 in/hr0.0 mm/hr 0.00 in0.0 mm
06:50 AM 58.8°F14.9°C 54.0°F12.2°C 84% 3.0 mph ENE4.8 kmh ENE 9.0 mph14.5 kmh 29.92 in1013.2 mb 0.00 in0.0 mm 0.00 in/hr0.0 mm/hr 0.00 in0.0 mm
06:40 AM 58.6°F14.8°C 54.1°F12.3°C 85% 3.1 mph ENE5.0 kmh ENE 5.7 mph9.2 kmh 29.91 in1012.9 mb 0.00 in0.0 mm 0.00 in/hr0.0 mm/hr 0.00 in0.0 mm
06:30 AM 58.5°F14.7°C 54.0°F12.2°C 85% 3.3 mph E5.3 kmh E 4.7 mph7.6 kmh 29.91 in1012.9 mb 0.00 in0.0 mm 0.00 in/hr0.0 mm/hr 0.00 in0.0 mm
06:20 AM 58.3°F14.6°C 53.8°F12.1°C 85% 2.2 mph ENE3.5 kmh ENE 2.4 mph3.9 kmh 29.92 in1013.2 mb 0.00 in0.0 mm 0.00 in/hr0.0 mm/hr 0.00 in0.0 mm
06:10 AM 58.3°F14.6°C 53.8°F12.1°C 85% 3.0 mph NE4.8 kmh NE 4.9 mph7.9 kmh 29.92 in1013.2 mb 0.00 in0.0 mm 0.00 in/hr0.0 mm/hr 0.00 in0.0 mm
06:00 AM 58.2°F14.6°C 53.8°F12.1°C 85% 4.2 mph NE6.8 kmh NE 6.4 mph10.3 kmh 29.92 in1013.2 mb 0.00 in0.0 mm 0.00 in/hr0.0 mm/hr 0.00 in0.0 mm
05:50 AM 58.1°F14.5°C 53.6°F12.0°C 85% 4.6 mph NNE7.4 kmh NNE 9.0 mph14.5 kmh 29.92 in1013.2 mb 0.00 in0.0 mm 0.00 in/hr0.0 mm/hr 0.00 in0.0 mm
05:40 AM 58.3°F14.6°C 53.8°F12.1°C 85% 3.0 mph NE4.8 kmh NE 5.2 mph8.4 kmh 29.91 in1012.9 mb 0.00 in0.0 mm 0.00 in/hr0.0 mm/hr 0.00 in0.0 mm
05:30 AM 58.1°F14.5°C 53.6°F12.0°C 85% 3.2 mph NE5.1 kmh NE 4.9 mph7.9 kmh 29.91 in1012.9 mb 0.00 in0.0 mm 0.00 in/hr0.0 mm/hr 0.00 in0.0 mm
05:20 AM 58.3°F14.6°C 53.8°F12.1°C 85% 3.1 mph E5.0 kmh E 7.6 mph12.2 kmh 29.92 in1013.2 mb 0.00 in0.0 mm 0.00 in/hr0.0 mm/hr 0.00 in0.0 mm
05:10 AM 58.1°F14.5°C 53.6°F12.0°C 85% 2.0 mph NNW3.2 kmh NNW 4.4 mph7.1 kmh 29.92 in1013.2 mb 0.00 in0.0 mm 0.00 in/hr0.0 mm/hr 0.00 in0.0 mm
05:00 AM 58.1°F14.5°C 53.6°F12.0°C 85% 3.2 mph NE5.1 kmh NE 3.8 mph6.1 kmh 29.92 in1013.2 mb 0.00 in0.0 mm 0.00 in/hr0.0 mm/hr 0.00 in0.0 mm
04:50 AM 58.3°F14.6°C 53.8°F12.1°C 85% 3.3 mph NE5.3 kmh NE 5.7 mph9.2 kmh 29.92 in1013.2 mb 0.00 in0.0 mm 0.00 in/hr0.0 mm/hr 0.00 in0.0 mm
04:40 AM 58.1°F14.5°C 53.6°F12.0°C 85% 2.5 mph NE4.0 kmh NE 4.3 mph6.9 kmh 29.91 in1012.9 mb 0.00 in0.0 mm 0.00 in/hr0.0 mm/hr 0.00 in0.0 mm
04:30 AM 58.3°F14.6°C 53.8°F12.1°C 85% 2.8 mph N4.5 kmh N 6.0 mph9.7 kmh 29.91 in1012.9 mb 0.00 in0.0 mm 0.00 in/hr0.0 mm/hr 0.00 in0.0 mm
04:20 AM 58.1°F14.5°C 53.9°F12.2°C 86% 2.5 mph NE4.0 kmh NE 4.6 mph7.4 kmh 29.92 in1013.2 mb 0.00 in0.0 mm 0.00 in/hr0.0 mm/hr 0.00 in0.0 mm
04:10 AM 58.3°F14.6°C 54.1°F12.3°C 86% 2.6 mph NE4.2 kmh NE 2.4 mph3.9 kmh 29.92 in1013.2 mb 0.00 in0.0 mm 0.00 in/hr0.0 mm/hr 0.00 in0.0 mm
04:00 AM 58.3°F14.6°C 54.1°F12.3°C 86% 1.8 mph NE2.9 kmh NE 2.9 mph4.7 kmh 29.93 in1013.5 mb 0.00 in0.0 mm 0.00 in/hr0.0 mm/hr 0.00 in0.0 mm
03:50 AM 58.3°F14.6°C 54.1°F12.3°C 86% 1.7 mph N2.7 kmh N 4.3 mph6.9 kmh 29.93 in1013.5 mb 0.00 in0.0 mm 0.00 in/hr0.0 mm/hr 0.00 in0.0 mm
03:40 AM 58.3°F14.6°C 54.1°F12.3°C 86% 1.4 mph NNE2.3 kmh NNE 2.4 mph3.9 kmh 29.93 in1013.5 mb 0.00 in0.0 mm 0.00 in/hr0.0 mm/hr 0.00 in0.0 mm
03:30 AM 58.5°F14.7°C 54.3°F12.4°C 86% 1.4 mph N2.3 kmh N 1.8 mph2.9 kmh 29.93 in1013.5 mb 0.00 in0.0 mm 0.00 in/hr0.0 mm/hr 0.00 in0.0 mm
03:20 AM 58.6°F14.8°C 54.8°F12.7°C 87% 1.9 mph NE3.1 kmh NE 2.3 mph3.7 kmh 29.93 in1013.5 mb 0.00 in0.0 mm 0.00 in/hr0.0 mm/hr 0.00 in0.0 mm
03:10 AM 58.5°F14.7°C 54.6°F12.6°C 87% 1.1 mph N1.8 kmh N 4.1 mph6.6 kmh 29.93 in1013.5 mb 0.00 in0.0 mm 0.00 in/hr0.0 mm/hr 0.00 in0.0 mm
03:00 AM 58.5°F14.7°C 54.6°F12.6°C 87% 1.5 mph 2.4 kmh 2.6 mph4.2 kmh 29.93 in1013.5 mb 0.00 in0.0 mm 0.00 in/hr0.0 mm/hr 0.00 in0.0 mm
02:50 AM 58.6°F14.8°C 54.8°F12.7°C 87% 1.7 mph N2.7 kmh N 3.2 mph5.1 kmh 29.93 in1013.5 mb 0.00 in0.0 mm 0.00 in/hr0.0 mm/hr 0.00 in0.0 mm
02:40 AM 58.5°F14.7°C 54.6°F12.6°C 87% 1.4 mph N2.3 kmh N 3.5 mph5.6 kmh 29.94 in1013.9 mb 0.00 in0.0 mm 0.00 in/hr0.0 mm/hr 0.00 in0.0 mm
02:30 AM 58.6°F14.8°C 54.8°F12.7°C 87% 1.4 mph N2.3 kmh N 3.5 mph5.6 kmh 29.94 in1013.9 mb 0.00 in0.0 mm 0.00 in/hr0.0 mm/hr 0.00 in0.0 mm
02:20 AM 58.5°F14.7°C 54.6°F12.6°C 87% 1.7 mph NNE2.7 kmh NNE 2.4 mph3.9 kmh 29.94 in1013.9 mb 0.00 in0.0 mm 0.00 in/hr0.0 mm/hr 0.00 in0.0 mm
02:10 AM 58.5°F14.7°C 54.6°F12.6°C 87% 1.7 mph N2.7 kmh N 2.6 mph4.2 kmh 29.94 in1013.9 mb 0.00 in0.0 mm 0.00 in/hr0.0 mm/hr 0.00 in0.0 mm
02:00 AM 58.6°F14.8°C 54.8°F12.7°C 87% 1.5 mph NNE2.4 kmh NNE 2.9 mph4.7 kmh 29.94 in1013.9 mb 0.00 in0.0 mm 0.00 in/hr0.0 mm/hr 0.00 in0.0 mm
01:50 AM 58.6°F14.8°C 54.8°F12.7°C 87% 0.2 mph N0.3 kmh N 2.4 mph3.9 kmh 29.94 in1013.9 mb 0.00 in0.0 mm 0.00 in/hr0.0 mm/hr 0.00 in0.0 mm
01:40 AM 58.6°F14.8°C 54.8°F12.7°C 87% Calm Calm -- 29.95 in1014.2 mb 0.00 in0.0 mm 0.00 in/hr0.0 mm/hr 0.00 in0.0 mm
01:30 AM 58.6°F14.8°C 54.8°F12.7°C 87% 0.1 mph WNW0.2 kmh WNW -- 29.95 in1014.2 mb 0.00 in0.0 mm 0.00 in/hr0.0 mm/hr 0.00 in0.0 mm
01:20 AM 58.8°F14.9°C 55.0°F12.8°C 87% Calm Calm -- 29.95 in1014.2 mb 0.00 in0.0 mm 0.00 in/hr0.0 mm/hr 0.00 in0.0 mm
01:10 AM 59.0°F15.0°C 55.1°F12.8°C 87% Calm Calm -- 29.95 in1014.2 mb 0.00 in0.0 mm 0.00 in/hr0.0 mm/hr 0.00 in0.0 mm
01:00 AM 59.0°F15.0°C 55.1°F12.8°C 87% 0.2 mph NNW0.3 kmh NNW -- 29.96 in1014.6 mb 0.00 in0.0 mm 0.00 in/hr0.0 mm/hr 0.00 in0.0 mm
12:50 AM 59.0°F15.0°C 55.1°F12.8°C 87% 1.2 mph N1.9 kmh N 1.5 mph2.4 kmh 29.96 in1014.6 mb 0.00 in0.0 mm 0.00 in/hr0.0 mm/hr 0.00 in0.0 mm
12:40 AM 59.0°F15.0°C 54.8°F12.7°C 86% 1.4 mph N2.3 kmh N 2.6 mph4.2 kmh 29.96 in1014.6 mb 0.00 in0.0 mm 0.00 in/hr0.0 mm/hr 0.00 in0.0 mm
12:30 AM 59.2°F15.1°C 55.0°F12.8°C 86% 0.7 mph NNE1.1 kmh NNE 1.7 mph2.7 kmh 29.96 in1014.6 mb 0.00 in0.0 mm 0.00 in/hr0.0 mm/hr 0.00 in0.0 mm
12:20 AM 59.2°F15.1°C 55.0°F12.8°C 86% 1.2 mph N1.9 kmh N 2.3 mph3.7 kmh 29.98 in1015.2 mb 0.00 in0.0 mm 0.00 in/hr0.0 mm/hr 0.00 in0.0 mm
12:10 AM 59.3°F15.2°C 55.5°F13.1°C 87% 1.0 mph NE1.6 kmh NE 2.8 mph4.5 kmh 29.98 in1015.2 mb 0.00 in0.0 mm 0.00 in/hr0.0 mm/hr 0.00 in0.0 mm
12:00 AM 59.0°F15.0°C 54.8°F12.7°C 86% 0.2 mph N0.3 kmh N -- 29.97 in1014.9 mb 0.00 in0.0 mm 0.00 in/hr0.0 mm/hr 0.00 in0.0 mm